sensor_id;sensor_type;location;lat;lon;timestamp;pressure;altitude;pressure_sealevel;temperature;humidity
68489;BME280;55481;48.764;8.936;2023-02-16T00:02:32;97980;;;-0.4;76
68489;BME280;55481;48.764;8.936;2023-02-16T00:05:20;97980;;;-0.3;76
68489;BME280;55481;48.764;8.936;2023-02-16T00:07:41;97980;;;-0.3;75.5
68489;BME280;55481;48.764;8.936;2023-02-16T00:10:12;97990;;;-0.3;75.5
68489;BME280;55481;48.764;8.936;2023-02-16T00:12:49;97990;;;-0.4;75.5
68489;BME280;55481;48.764;8.936;2023-02-16T00:15:25;97980;;;-0.4;76
68489;BME280;55481;48.764;8.936;2023-02-16T00:17:45;97990;;;-0.5;76
68489;BME280;55481;48.764;8.936;2023-02-16T00:22:47;97990;;;-0.4;75.5
68489;BME280;55481;48.764;8.936;2023-02-16T00:25:18;97990;;;-0.4;75.5
68489;BME280;55481;48.764;8.936;2023-02-16T00:27:52;97990;;;-0.3;75.5
68489;BME280;55481;48.764;8.936;2023-02-16T00:30:20;97980;;;-0.2;75
68489;BME280;55481;48.764;8.936;2023-02-16T00:32:51;97990;;;-0.4;75.5
68489;BME280;55481;48.764;8.936;2023-02-16T00:42:48;97980;;;-0.2;75
68489;BME280;55481;48.764;8.936;2023-02-16T00:45:18;97990;;;-0.2;75
68489;BME280;55481;48.764;8.936;2023-02-16T00:47:50;97990;;;-0.3;75.5
68489;BME280;55481;48.764;8.936;2023-02-16T00:50:35;97990;;;-0.3;75.5
68489;BME280;55481;48.764;8.936;2023-02-16T00:52:50;97980;;;-0.4;75.5
68489;BME280;55481;48.764;8.936;2023-02-16T00:55:22;97980;;;-0.4;75.5
68489;BME280;55481;48.764;8.936;2023-02-16T00:58:01;97980;;;-0.4;75.5
68489;BME280;55481;48.764;8.936;2023-02-16T01:00:24;97980;;;-0.4;75.5
68489;BME280;55481;48.764;8.936;2023-02-16T01:07:56;97990;;;-0.5;75.5
68489;BME280;55481;48.764;8.936;2023-02-16T01:10:33;98000;;;-0.7;76
68489;BME280;55481;48.764;8.936;2023-02-16T01:13:05;98000;;;-0.6;76
68489;BME280;55481;48.764;8.936;2023-02-16T01:20:29;97990;;;-0.8;76.5
68489;BME280;55481;48.764;8.936;2023-02-16T01:28:01;97980;;;-0.3;75.5
68489;BME280;55481;48.764;8.936;2023-02-16T01:30:32;97990;;;-0.3;75
68489;BME280;55481;48.764;8.936;2023-02-16T01:33:03;97990;;;-0.3;75
68489;BME280;55481;48.764;8.936;2023-02-16T01:35:34;97980;;;-0.2;75
68489;BME280;55481;48.764;8.936;2023-02-16T01:40:41;97980;;;-0.3;75
68489;BME280;55481;48.764;8.936;2023-02-16T01:43:17;97970;;;-0.4;75.5
68489;BME280;55481;48.764;8.936;2023-02-16T01:45:44;97970;;;-0.3;75.5
68489;BME280;55481;48.764;8.936;2023-02-16T01:53:15;97970;;;-0.3;75
68489;BME280;55481;48.764;8.936;2023-02-16T01:55:41;97970;;;-0.2;75
68489;BME280;55481;48.764;8.936;2023-02-16T01:58:13;97970;;;-0.1;75
68489;BME280;55481;48.764;8.936;2023-02-16T02:03:12;97960;;;-0.6;75.5
68489;BME280;55481;48.764;8.936;2023-02-16T02:05:43;97980;;;-0.9;76
68489;BME280;55481;48.764;8.936;2023-02-16T02:13:19;97980;;;-1.2;76.5
68489;BME280;55481;48.764;8.936;2023-02-16T02:15:55;97970;;;-1.2;77
68489;BME280;55481;48.764;8.936;2023-02-16T02:18:23;97970;;;-0.9;76.5
68489;BME280;55481;48.764;8.936;2023-02-16T02:21:08;97960;;;-0.9;76
68489;BME280;55481;48.764;8.936;2023-02-16T02:23:31;97960;;;-0.8;76
68489;BME280;55481;48.764;8.936;2023-02-16T02:26:02;97950;;;-0.6;75.5
68489;BME280;55481;48.764;8.936;2023-02-16T02:28:34;97950;;;-0.5;75.5
68489;BME280;55481;48.764;8.936;2023-02-16T02:31:01;97950;;;-0.4;75
68489;BME280;55481;48.764;8.936;2023-02-16T02:34:03;97950;;;-0.6;75.5
68489;BME280;55481;48.764;8.936;2023-02-16T02:37:08;97950;;;-0.6;75.5
68489;BME280;55481;48.764;8.936;2023-02-16T02:38:44;97950;;;-0.8;75.5
68489;BME280;55481;48.764;8.936;2023-02-16T02:41:13;97950;;;-0.9;76
68489;BME280;55481;48.764;8.936;2023-02-16T02:46:07;97950;;;-1;76
68489;BME280;55481;48.764;8.936;2023-02-16T02:48:35;97960;;;-1.1;76
68489;BME280;55481;48.764;8.936;2023-02-16T02:51:09;97960;;;-1.1;76.5
68489;BME280;55481;48.764;8.936;2023-02-16T02:53:44;97970;;;-1.2;76.5
68489;BME280;55481;48.764;8.936;2023-02-16T02:56:08;97960;;;-1.2;76.5
68489;BME280;55481;48.764;8.936;2023-02-16T02:58:40;97950;;;-1.1;76.5
68489;BME280;55481;48.764;8.936;2023-02-16T03:01:10;97950;;;-1;76
68489;BME280;55481;48.764;8.936;2023-02-16T03:03:43;97940;;;-1;76
68489;BME280;55481;48.764;8.936;2023-02-16T03:06:14;97940;;;-0.7;75.5
68489;BME280;55481;48.764;8.936;2023-02-16T03:08:52;97940;;;-0.5;75.5
68489;BME280;55481;48.764;8.936;2023-02-16T03:13:46;97930;;;-0.5;75
68489;BME280;55481;48.764;8.936;2023-02-16T03:16:19;97930;;;-0.4;75
68489;BME280;55481;48.764;8.936;2023-02-16T03:18:47;97930;;;-0.5;75.5
68489;BME280;55481;48.764;8.936;2023-02-16T03:21:19;97940;;;-0.4;75
68489;BME280;55481;48.764;8.936;2023-02-16T03:23:49;97940;;;-0.5;75
68489;BME280;55481;48.764;8.936;2023-02-16T03:26:20;97940;;;-0.9;76
68489;BME280;55481;48.764;8.936;2023-02-16T03:28:51;97940;;;-1.1;76.5
68489;BME280;55481;48.764;8.936;2023-02-16T03:31:25;97950;;;-1.3;77
68489;BME280;55481;48.764;8.936;2023-02-16T03:33:52;97950;;;-1.3;77
68489;BME280;55481;48.764;8.936;2023-02-16T03:36:24;97950;;;-1.2;76.5
68489;BME280;55481;48.764;8.936;2023-02-16T03:39:01;97950;;;-1.3;76.5
68489;BME280;55481;48.764;8.936;2023-02-16T03:41:34;97950;;;-1.2;76
68489;BME280;55481;48.764;8.936;2023-02-16T03:46:28;97940;;;-1.3;76.5
68489;BME280;55481;48.764;8.936;2023-02-16T03:48:59;97950;;;-1.3;76.5
68489;BME280;55481;48.764;8.936;2023-02-16T03:51:30;97950;;;-1.1;76
68489;BME280;55481;48.764;8.936;2023-02-16T03:54:01;97950;;;-1.1;76
68489;BME280;55481;48.764;8.936;2023-02-16T03:56:32;97950;;;-0.9;75.5
68489;BME280;55481;48.764;8.936;2023-02-16T03:59:03;97960;;;-1;75.5
68489;BME280;55481;48.764;8.936;2023-02-16T04:01:33;97960;;;-1;76
68489;BME280;55481;48.764;8.936;2023-02-16T04:04:04;97950;;;-0.8;75.5
68489;BME280;55481;48.764;8.936;2023-02-16T04:06:35;97950;;;-0.8;75.5
68489;BME280;55481;48.764;8.936;2023-02-16T04:09:07;97950;;;-0.7;75.5
68489;BME280;55481;48.764;8.936;2023-02-16T04:11:44;97950;;;-0.6;75.5
68489;BME280;55481;48.764;8.936;2023-02-16T04:16:40;97960;;;-0.4;75
68489;BME280;55481;48.764;8.936;2023-02-16T04:19:10;97960;;;-0.3;75
68489;BME280;55481;48.764;8.936;2023-02-16T04:21:42;97950;;;-0.3;75
68489;BME280;55481;48.764;8.936;2023-02-16T04:24:12;97960;;;-0.3;75
68489;BME280;55481;48.764;8.936;2023-02-16T04:26:43;97960;;;-0.5;75.5
68489;BME280;55481;48.764;8.936;2023-02-16T04:29:15;97960;;;-0.7;75.5
68489;BME280;55481;48.764;8.936;2023-02-16T04:31:45;97960;;;-0.7;76
68489;BME280;55481;48.764;8.936;2023-02-16T04:34:16;97960;;;-0.9;76
68489;BME280;55481;48.764;8.936;2023-02-16T04:36:47;97970;;;-1.1;76.5
68489;BME280;55481;48.764;8.936;2023-02-16T04:39:24;97970;;;-1.2;76.5
68489;BME280;55481;48.764;8.936;2023-02-16T04:41:56;97970;;;-1.2;76.5
68489;BME280;55481;48.764;8.936;2023-02-16T04:46:51;97970;;;-1.6;77.5
68489;BME280;55481;48.764;8.936;2023-02-16T04:49:22;97970;;;-1.4;77
68489;BME280;55481;48.764;8.936;2023-02-16T04:51:53;97970;;;-1.6;77
68489;BME280;55481;48.764;8.936;2023-02-16T04:54:24;97970;;;-1.6;77
68489;BME280;55481;48.764;8.936;2023-02-16T04:56:55;97970;;;-1.6;77
68489;BME280;55481;48.764;8.936;2023-02-16T04:59:26;97970;;;-1.5;76.5
68489;BME280;55481;48.764;8.936;2023-02-16T05:01:58;97970;;;-1.4;76.5
68489;BME280;55481;48.764;8.936;2023-02-16T05:04:28;97970;;;-1.4;76.5
68489;BME280;55481;48.764;8.936;2023-02-16T05:06:59;97960;;;-1.4;76.5
68489;BME280;55481;48.764;8.936;2023-02-16T05:09:38;97960;;;-1.4;76.5
68489;BME280;55481;48.764;8.936;2023-02-16T05:12:08;97970;;;-1.4;76.5
68489;BME280;55481;48.764;8.936;2023-02-16T05:17:14;97960;;;-1.5;76.5
68489;BME280;55481;48.764;8.936;2023-02-16T05:24:36;97960;;;-1.5;76.5
68489;BME280;55481;48.764;8.936;2023-02-16T05:29:36;97970;;;-1.4;76.5
68489;BME280;55481;48.764;8.936;2023-02-16T05:34:31;97970;;;-1.7;77
68489;BME280;55481;48.764;8.936;2023-02-16T05:37:06;97970;;;-1.6;76.5
68489;BME280;55481;48.764;8.936;2023-02-16T05:39:33;97970;;;-1.5;76.5
68489;BME280;55481;48.764;8.936;2023-02-16T05:47:05;97970;;;-1.8;77
68489;BME280;55481;48.764;8.936;2023-02-16T05:49:41;97980;;;-1.8;77
68489;BME280;55481;48.764;8.936;2023-02-16T05:52:07;97980;;;-1.5;76.5
68489;BME280;55481;48.764;8.936;2023-02-16T05:54:40;97980;;;-1.3;76
68489;BME280;55481;48.764;8.936;2023-02-16T05:59:45;97980;;;-1.1;75.5
68489;BME280;55481;48.764;8.936;2023-02-16T06:02:16;97980;;;-0.9;75.5
68489;BME280;55481;48.764;8.936;2023-02-16T06:04:47;97990;;;-0.9;75
68489;BME280;55481;48.764;8.936;2023-02-16T06:09:50;97990;;;-1.2;76
68489;BME280;55481;48.764;8.936;2023-02-16T06:12:20;98000;;;-1.2;76
68489;BME280;55481;48.764;8.936;2023-02-16T06:14:51;98000;;;-1.2;76
68489;BME280;55481;48.764;8.936;2023-02-16T06:17:22;98000;;;-1.2;76
68489;BME280;55481;48.764;8.936;2023-02-16T06:19:53;98000;;;-1.1;76
68489;BME280;55481;48.764;8.936;2023-02-16T06:22:31;98010;;;-1.1;76
68489;BME280;55481;48.764;8.936;2023-02-16T06:25:00;98010;;;-1.3;76
68489;BME280;55481;48.764;8.936;2023-02-16T06:27:31;98010;;;-1.4;76.5
68489;BME280;55481;48.764;8.936;2023-02-16T06:34:59;98010;;;-1.5;76.5
68489;BME280;55481;48.764;8.936;2023-02-16T06:37:28;98010;;;-1.5;76.5
68489;BME280;55481;48.764;8.936;2023-02-16T06:42:36;98010;;;-1.3;76
68489;BME280;55481;48.764;8.936;2023-02-16T06:45:07;98010;;;-1.5;76.5
68489;BME280;55481;48.764;8.936;2023-02-16T06:47:30;98010;;;-1.4;76.5
68489;BME280;55481;48.764;8.936;2023-02-16T06:50:01;98020;;;-1.5;76.5
68489;BME280;55481;48.764;8.936;2023-02-16T06:52:32;98010;;;-1.5;76.5
68489;BME280;55481;48.764;8.936;2023-02-16T07:00:16;98020;;;-1.4;76.5
68489;BME280;55481;48.764;8.936;2023-02-16T07:02:53;98010;;;-1.4;76.5
68489;BME280;55481;48.764;8.936;2023-02-16T07:05:10;98010;;;-1.2;76
68489;BME280;55481;48.764;8.936;2023-02-16T07:10:04;98010;;;-0.8;75.5
68489;BME280;55481;48.764;8.936;2023-02-16T07:12:35;98010;;;-0.4;75
68489;BME280;55481;48.764;8.936;2023-02-16T07:15:13;98010;;;-0.3;75
68489;BME280;55481;48.764;8.936;2023-02-16T07:17:37;98010;;;-0.1;74.5
68489;BME280;55481;48.764;8.936;2023-02-16T07:20:08;98010;;;0;74.5
68489;BME280;55481;48.764;8.936;2023-02-16T07:22:46;98010;;;0.1;74.5
68489;BME280;55481;48.764;8.936;2023-02-16T07:25:15;98010;;;0.1;74.5
68489;BME280;55481;48.764;8.936;2023-02-16T07:30:11;98010;;;0;74.5
68489;BME280;55481;48.764;8.936;2023-02-16T07:32:40;98020;;;0;75
68489;BME280;55481;48.764;8.936;2023-02-16T07:35:11;98020;;;-0.3;75.5
68489;BME280;55481;48.764;8.936;2023-02-16T07:37:35;98020;;;-0.3;76
68489;BME280;55481;48.764;8.936;2023-02-16T07:40:06;98020;;;-0.1;76
68489;BME280;55481;48.764;8.936;2023-02-16T07:42:37;98020;;;0;75.5
68489;BME280;55481;48.764;8.936;2023-02-16T07:45:08;98020;;;0;75.5
68489;BME280;55481;48.764;8.936;2023-02-16T07:52:40;98030;;;0.3;75.5
68489;BME280;55481;48.764;8.936;2023-02-16T07:58:07;98030;;;0.8;74.5
68489;BME280;55481;48.764;8.936;2023-02-16T08:00:25;98030;;;1;74
68489;BME280;55481;48.764;8.936;2023-02-16T08:05:18;98030;;;1.5;73.5
68489;BME280;55481;48.764;8.936;2023-02-16T08:10:21;98020;;;2;73
68489;BME280;55481;48.764;8.936;2023-02-16T08:12:51;98020;;;2.2;72.5
68489;BME280;55481;48.764;8.936;2023-02-16T08:17:59;98020;;;2.7;72.5
68489;BME280;55481;48.764;8.936;2023-02-16T08:20:29;98020;;;2.9;72
68489;BME280;55481;48.764;8.936;2023-02-16T08:22:59;98020;;;3.1;72
68489;BME280;55481;48.764;8.936;2023-02-16T08:27:54;98020;;;3.4;72
68489;BME280;55481;48.764;8.936;2023-02-16T08:30:26;98020;;;3.6;72
68489;BME280;55481;48.764;8.936;2023-02-16T08:35:36;98010;;;4;71.5
68489;BME280;55481;48.764;8.936;2023-02-16T08:38:04;98010;;;4.2;71.5
68489;BME280;55481;48.764;8.936;2023-02-16T08:40:35;98010;;;4.4;71.5
68489;BME280;55481;48.764;8.936;2023-02-16T08:43:00;98010;;;4.6;71.5
68489;BME280;55481;48.764;8.936;2023-02-16T08:45:31;98010;;;4.9;71
68489;BME280;55481;48.764;8.936;2023-02-16T08:48:10;98010;;;5.1;70.5
68489;BME280;55481;48.764;8.936;2023-02-16T08:50:32;98010;;;5;71
68489;BME280;55481;48.764;8.936;2023-02-16T08:53:09;98010;;;4.9;71.5
68489;BME280;55481;48.764;8.936;2023-02-16T08:55:40;98010;;;4.9;72
68489;BME280;55481;48.764;8.936;2023-02-16T08:58:17;98000;;;5;72
68489;BME280;55481;48.764;8.936;2023-02-16T09:03:04;98000;;;5.4;71.5
68489;BME280;55481;48.764;8.936;2023-02-16T09:05:35;98000;;;5.9;70.5
68489;BME280;55481;48.764;8.936;2023-02-16T09:08:05;98000;;;6.2;70
68489;BME280;55481;48.764;8.936;2023-02-16T09:13:02;98000;;;6.7;69.5
68489;BME280;55481;48.764;8.936;2023-02-16T09:15:31;98000;;;6.7;70
68489;BME280;55481;48.764;8.936;2023-02-16T09:23:05;98000;;;7.1;70
68489;BME280;55481;48.764;8.936;2023-02-16T09:25:36;98000;;;7.2;70
68489;BME280;55481;48.764;8.936;2023-02-16T09:28:06;98000;;;7.2;70
68489;BME280;55481;48.764;8.936;2023-02-16T09:33:13;98000;;;7.5;70
68489;BME280;55481;48.764;8.936;2023-02-16T09:35:44;98000;;;7.5;70
68489;BME280;55481;48.764;8.936;2023-02-16T09:40:39;98000;;;7.6;70.5
68489;BME280;55481;48.764;8.936;2023-02-16T09:43:17;97990;;;7.7;70.5
68489;BME280;55481;48.764;8.936;2023-02-16T09:45:42;97990;;;7.7;70.5
68489;BME280;55481;48.764;8.936;2023-02-16T09:53:18;97980;;;7.9;70.5
68489;BME280;55481;48.764;8.936;2023-02-16T09:55:49;97980;;;7.9;70.5
68489;BME280;55481;48.764;8.936;2023-02-16T09:58:18;97980;;;7.9;70.5
68489;BME280;55481;48.764;8.936;2023-02-16T10:00:54;97980;;;8.1;70.5
68489;BME280;55481;48.764;8.936;2023-02-16T10:05:55;97970;;;8.4;70
68489;BME280;55481;48.764;8.936;2023-02-16T10:08:24;97970;;;8.4;70
68489;BME280;55481;48.764;8.936;2023-02-16T10:13:21;97970;;;8.8;69.5
68489;BME280;55481;48.764;8.936;2023-02-16T10:23:30;97970;;;9;69.5
68489;BME280;55481;48.764;8.936;2023-02-16T10:26:58;97970;;;9.2;69.5
68489;BME280;55481;48.764;8.936;2023-02-16T10:28:28;97960;;;9.5;69
68489;BME280;55481;48.764;8.936;2023-02-16T10:31:03;97970;;;9.7;68.5
68489;BME280;55481;48.764;8.936;2023-02-16T10:33:33;97970;;;9.8;68.5
68489;BME280;55481;48.764;8.936;2023-02-16T10:35:59;97960;;;9.8;68.5
68489;BME280;55481;48.764;8.936;2023-02-16T10:41:11;97960;;;10.1;68.5
68489;BME280;55481;48.764;8.936;2023-02-16T10:43:52;97950;;;10.4;68
68489;BME280;55481;48.764;8.936;2023-02-16T10:46:07;97950;;;10.4;68
68489;BME280;55481;48.764;8.936;2023-02-16T10:48:43;97950;;;10.8;67.5
68489;BME280;55481;48.764;8.936;2023-02-16T10:51:15;97940;;;11.1;67
68489;BME280;55481;48.764;8.936;2023-02-16T10:53:58;97940;;;11.3;66.5
68489;BME280;55481;48.764;8.936;2023-02-16T10:56:34;97940;;;11.3;67
68489;BME280;55481;48.764;8.936;2023-02-16T10:58:45;97940;;;11.3;67
68489;BME280;55481;48.764;8.936;2023-02-16T11:03:48;97940;;;11.3;67.5
68489;BME280;55481;48.764;8.936;2023-02-16T11:06:13;97940;;;11.6;67
68489;BME280;55481;48.764;8.936;2023-02-16T11:08:48;97940;;;11.4;67.5
68489;BME280;55481;48.764;8.936;2023-02-16T11:18:57;97920;;;11.8;67.5
68489;BME280;55481;48.764;8.936;2023-02-16T11:21:20;97920;;;11.9;67
68489;BME280;55481;48.764;8.936;2023-02-16T11:26:23;97910;;;11.9;67.5
68489;BME280;55481;48.764;8.936;2023-02-16T11:28:45;97910;;;12.3;66.5
68489;BME280;55481;48.764;8.936;2023-02-16T11:31:17;97910;;;12.4;66.5
68489;BME280;55481;48.764;8.936;2023-02-16T11:33:40;97910;;;12.3;67
68489;BME280;55481;48.764;8.936;2023-02-16T11:41:12;97900;;;12.2;67.5
68489;BME280;55481;48.764;8.936;2023-02-16T11:43:43;97900;;;12.2;67.5
68489;BME280;55481;48.764;8.936;2023-02-16T11:46:16;97900;;;12.2;68
68489;BME280;55481;48.764;8.936;2023-02-16T11:48:44;97890;;;12.5;67.5
68489;BME280;55481;48.764;8.936;2023-02-16T11:51:31;97890;;;12.3;67.5
68489;BME280;55481;48.764;8.936;2023-02-16T11:54:00;97890;;;12.3;68
68489;BME280;55481;48.764;8.936;2023-02-16T11:56:25;97880;;;12.5;68
68489;BME280;55481;48.764;8.936;2023-02-16T12:01:24;97870;;;12.9;68
68489;BME280;55481;48.764;8.936;2023-02-16T12:11:33;97870;;;13.5;68
68489;BME280;55481;48.764;8.936;2023-02-16T12:14:31;97860;;;13.5;67.5
68489;BME280;55481;48.764;8.936;2023-02-16T12:17:30;97860;;;13.6;68
68489;BME280;55481;48.764;8.936;2023-02-16T12:19:07;97860;;;13.6;68.5
68489;BME280;55481;48.764;8.936;2023-02-16T12:21:38;97860;;;13.7;68
68489;BME280;55481;48.764;8.936;2023-02-16T12:26:31;97850;;;14;68
68489;BME280;55481;48.764;8.936;2023-02-16T12:29:01;97850;;;14;68
68489;BME280;55481;48.764;8.936;2023-02-16T12:31:33;97850;;;14;68
68489;BME280;55481;48.764;8.936;2023-02-16T12:41:36;97830;;;14;68
68489;BME280;55481;48.764;8.936;2023-02-16T12:46:46;97830;;;14;67.5
68489;BME280;55481;48.764;8.936;2023-02-16T12:49:19;97820;;;13.8;68.5
68489;BME280;55481;48.764;8.936;2023-02-16T12:51:47;97820;;;13.8;68.5
68489;BME280;55481;48.764;8.936;2023-02-16T12:56:42;97820;;;13.8;68.5
68489;BME280;55481;48.764;8.936;2023-02-16T12:59:14;97810;;;13.8;68.5
68489;BME280;55481;48.764;8.936;2023-02-16T13:01:42;97810;;;13.8;68.5
68489;BME280;55481;48.764;8.936;2023-02-16T13:04:16;97810;;;14;68
68489;BME280;55481;48.764;8.936;2023-02-16T13:07:00;97810;;;14.2;68
68489;BME280;55481;48.764;8.936;2023-02-16T13:14:37;97790;;;14.9;67.5
68489;BME280;55481;48.764;8.936;2023-02-16T13:19:25;97790;;;15;67
68489;BME280;55481;48.764;8.936;2023-02-16T13:27:11;97800;;;14.7;68.5
68489;BME280;55481;48.764;8.936;2023-02-16T13:31:55;97790;;;14.5;68.5
68489;BME280;55481;48.764;8.936;2023-02-16T13:34:39;97790;;;14.3;68.5
68489;BME280;55481;48.764;8.936;2023-02-16T13:39:24;97790;;;14.1;68.5
68489;BME280;55481;48.764;8.936;2023-02-16T13:44:27;97790;;;13.8;68.5
68489;BME280;55481;48.764;8.936;2023-02-16T13:46:53;97800;;;13.7;68.5
68489;BME280;55481;48.764;8.936;2023-02-16T13:49:26;97800;;;13.6;68.5
68489;BME280;55481;48.764;8.936;2023-02-16T13:52:01;97800;;;13.5;68.5
68489;BME280;55481;48.764;8.936;2023-02-16T13:54:39;97810;;;13.5;68.5
68489;BME280;55481;48.764;8.936;2023-02-16T13:57:10;97800;;;13.5;68.5
68489;BME280;55481;48.764;8.936;2023-02-16T14:01:55;97810;;;13.5;68
68489;BME280;55481;48.764;8.936;2023-02-16T14:09:30;97820;;;13.3;68
68489;BME280;55481;48.764;8.936;2023-02-16T14:12:01;97820;;;13.1;68.5
68489;BME280;55481;48.764;8.936;2023-02-16T14:14:33;97820;;;13;68.5
68489;BME280;55481;48.764;8.936;2023-02-16T14:17:34;97820;;;13;68.5
68489;BME280;55481;48.764;8.936;2023-02-16T14:19:32;97820;;;12.8;68.5
68489;BME280;55481;48.764;8.936;2023-02-16T14:22:10;97820;;;12.7;68.5
68489;BME280;55481;48.764;8.936;2023-02-16T14:24:34;97820;;;12.6;68.5
68489;BME280;55481;48.764;8.936;2023-02-16T14:27:12;97820;;;12.5;68.5
68489;BME280;55481;48.764;8.936;2023-02-16T14:29:43;97820;;;12.5;68.5
68489;BME280;55481;48.764;8.936;2023-02-16T14:32:23;97820;;;12.4;68.5
68489;BME280;55481;48.764;8.936;2023-02-16T14:34:42;97820;;;12.4;68.5
68489;BME280;55481;48.764;8.936;2023-02-16T14:37:30;97820;;;12.4;68.5
68489;BME280;55481;48.764;8.936;2023-02-16T14:39:40;97820;;;12.3;68.5
68489;BME280;55481;48.764;8.936;2023-02-16T14:55:45;97830;;;12.3;68
68489;BME280;55481;48.764;8.936;2023-02-16T15:04:41;97830;;;12.3;67.5
68489;BME280;55481;48.764;8.936;2023-02-16T15:07:31;97820;;;12.2;68
68489;BME280;55481;48.764;8.936;2023-02-16T15:10:10;97820;;;12.1;68
68489;BME280;55481;48.764;8.936;2023-02-16T15:12:27;97810;;;12.1;68
68489;BME280;55481;48.764;8.936;2023-02-16T15:17:51;97810;;;12.1;67.5
68489;BME280;55481;48.764;8.936;2023-02-16T15:19:51;97800;;;12.1;67.5
68489;BME280;55481;48.764;8.936;2023-02-16T15:22:22;97790;;;12.1;67.5
68489;BME280;55481;48.764;8.936;2023-02-16T15:24:53;97790;;;12;67.5
68489;BME280;55481;48.764;8.936;2023-02-16T15:34:49;97800;;;11.9;68
68489;BME280;55481;48.764;8.936;2023-02-16T15:37:22;97800;;;11.9;67.5
68489;BME280;55481;48.764;8.936;2023-02-16T15:39:51;97800;;;11.8;68
68489;BME280;55481;48.764;8.936;2023-02-16T15:42:22;97810;;;11.7;68
68489;BME280;55481;48.764;8.936;2023-02-16T15:44:52;97810;;;11.8;68
68489;BME280;55481;48.764;8.936;2023-02-16T15:47:36;97800;;;11.7;67.5
68489;BME280;55481;48.764;8.936;2023-02-16T15:50:10;97800;;;11.7;67.5
68489;BME280;55481;48.764;8.936;2023-02-16T15:52:31;97800;;;11.6;68
68489;BME280;55481;48.764;8.936;2023-02-16T15:55:02;97800;;;11.6;68
68489;BME280;55481;48.764;8.936;2023-02-16T15:57:33;97790;;;11.5;68
68489;BME280;55481;48.764;8.936;2023-02-16T16:00:14;97790;;;11.4;68
68489;BME280;55481;48.764;8.936;2023-02-16T16:02:42;97790;;;11.3;68.5
68489;BME280;55481;48.764;8.936;2023-02-16T16:10:18;97790;;;11.1;68.5
68489;BME280;55481;48.764;8.936;2023-02-16T16:12:44;97790;;;11.1;68
68489;BME280;55481;48.764;8.936;2023-02-16T16:17:37;97800;;;11.1;68
68489;BME280;55481;48.764;8.936;2023-02-16T16:20:39;97790;;;11.2;68
68489;BME280;55481;48.764;8.936;2023-02-16T16:22:39;97800;;;11.1;68
68489;BME280;55481;48.764;8.936;2023-02-16T16:27:47;97800;;;11;68
68489;BME280;55481;48.764;8.936;2023-02-16T16:30:31;97790;;;11;68
68489;BME280;55481;48.764;8.936;2023-02-16T16:33:01;97790;;;11;68
68489;BME280;55481;48.764;8.936;2023-02-16T16:37:41;97790;;;10.9;68
68489;BME280;55481;48.764;8.936;2023-02-16T16:40:20;97790;;;10.8;68.5
68489;BME280;55481;48.764;8.936;2023-02-16T16:43:15;97790;;;10.8;68.5
68489;BME280;55481;48.764;8.936;2023-02-16T16:47:38;97800;;;10.7;68.5
68489;BME280;55481;48.764;8.936;2023-02-16T16:52:41;97800;;;10.6;68.5
68489;BME280;55481;48.764;8.936;2023-02-16T16:55:22;97800;;;10.5;68.5
68489;BME280;55481;48.764;8.936;2023-02-16T16:57:40;97800;;;10.5;68.5
68489;BME280;55481;48.764;8.936;2023-02-16T17:00:12;97790;;;10.4;68.5
68489;BME280;55481;48.764;8.936;2023-02-16T17:02:43;97790;;;10.3;68.5
68489;BME280;55481;48.764;8.936;2023-02-16T17:09:07;97800;;;10.7;69
68489;BME280;55481;48.764;8.936;2023-02-16T17:13:38;97800;;;10.5;69
68489;BME280;55481;48.764;8.936;2023-02-16T17:16:11;97810;;;10.5;68.5
68489;BME280;55481;48.764;8.936;2023-02-16T17:18:40;97810;;;10.4;68.5
68489;BME280;55481;48.764;8.936;2023-02-16T17:23:41;97810;;;10.4;68.5
68489;BME280;55481;48.764;8.936;2023-02-16T17:26:12;97810;;;10.4;68
68489;BME280;55481;48.764;8.936;2023-02-16T17:33:44;97810;;;10.1;68
68489;BME280;55481;48.764;8.936;2023-02-16T17:36:35;97810;;;10.1;68
68489;BME280;55481;48.764;8.936;2023-02-16T17:39:12;97820;;;10.1;68
68489;BME280;55481;48.764;8.936;2023-02-16T17:43:59;97830;;;9.9;68.5
68489;BME280;55481;48.764;8.936;2023-02-16T17:46:29;97840;;;9.8;69
68489;BME280;55481;48.764;8.936;2023-02-16T17:48:59;97840;;;9.8;68.5
68489;BME280;55481;48.764;8.936;2023-02-16T17:53:53;97840;;;9.9;68
68489;BME280;55481;48.764;8.936;2023-02-16T17:56:24;97840;;;9.9;68
68489;BME280;55481;48.764;8.936;2023-02-16T17:59:02;97850;;;9.8;68
68489;BME280;55481;48.764;8.936;2023-02-16T18:04:03;97850;;;9.8;68
68489;BME280;55481;48.764;8.936;2023-02-16T18:11:49;97840;;;10;67.5
68489;BME280;55481;48.764;8.936;2023-02-16T18:14:07;97850;;;10;67.5
68489;BME280;55481;48.764;8.936;2023-02-16T18:16:37;97840;;;10;67.5
68489;BME280;55481;48.764;8.936;2023-02-16T18:19:09;97840;;;10;67.5
68489;BME280;55481;48.764;8.936;2023-02-16T18:21:37;97840;;;10.1;67
68489;BME280;55481;48.764;8.936;2023-02-16T18:24:07;97840;;;9.9;67.5
68489;BME280;55481;48.764;8.936;2023-02-16T18:29:01;97850;;;9.8;68
68489;BME280;55481;48.764;8.936;2023-02-16T18:31:39;97850;;;9.9;67.5
68489;BME280;55481;48.764;8.936;2023-02-16T18:36:35;97850;;;10;67.5
68489;BME280;55481;48.764;8.936;2023-02-16T18:41:41;97850;;;10;67
68489;BME280;55481;48.764;8.936;2023-02-16T18:44:11;97850;;;9.9;67.5
68489;BME280;55481;48.764;8.936;2023-02-16T18:49:06;97860;;;9.6;68
68489;BME280;55481;48.764;8.936;2023-02-16T18:51:37;97850;;;9.6;68
68489;BME280;55481;48.764;8.936;2023-02-16T18:54:07;97860;;;9.7;68
68489;BME280;55481;48.764;8.936;2023-02-16T18:56:38;97850;;;9.7;67.5
68489;BME280;55481;48.764;8.936;2023-02-16T18:59:15;97850;;;9.7;67.5
68489;BME280;55481;48.764;8.936;2023-02-16T19:01:54;97850;;;9.7;67.5
68489;BME280;55481;48.764;8.936;2023-02-16T19:06:40;97850;;;9.8;67.5
68489;BME280;55481;48.764;8.936;2023-02-16T19:09:10;97860;;;9.8;67
68489;BME280;55481;48.764;8.936;2023-02-16T19:11:41;97860;;;9.8;67
68489;BME280;55481;48.764;8.936;2023-02-16T19:16:37;97860;;;9.9;67
68489;BME280;55481;48.764;8.936;2023-02-16T19:26:39;97860;;;10.1;66.5
68489;BME280;55481;48.764;8.936;2023-02-16T19:29:09;97850;;;10;66.5
68489;BME280;55481;48.764;8.936;2023-02-16T19:31:42;97850;;;10;66.5
68489;BME280;55481;48.764;8.936;2023-02-16T19:34:12;97850;;;10;66.5
68489;BME280;55481;48.764;8.936;2023-02-16T19:39:25;97850;;;10;66.5
68489;BME280;55481;48.764;8.936;2023-02-16T19:41:55;97850;;;10;66.5
68489;BME280;55481;48.764;8.936;2023-02-16T19:44:26;97860;;;10;66.5
68489;BME280;55481;48.764;8.936;2023-02-16T19:46:56;97850;;;9.9;67
68489;BME280;55481;48.764;8.936;2023-02-16T19:54:21;97850;;;10;66.5